createdAt,value
2019-03-10T00:00:27.206Z,24.98
2019-03-10T00:01:37.017Z,23.75
2019-03-10T00:02:41.774Z,26.27
2019-03-10T00:03:46.553Z,28.27
2019-03-10T00:04:51.537Z,25.88
2019-03-10T00:05:56.515Z,29.98
2019-03-10T00:07:01.187Z,25.08
2019-03-10T00:08:08.055Z,27.95
2019-03-10T00:09:13.523Z,25.60
2019-03-10T00:10:18.250Z,28.85
2019-03-10T00:11:23.160Z,29.85
2019-03-10T00:12:27.888Z,29.92
2019-03-10T00:13:32.587Z,20.97
2019-03-10T00:14:37.861Z,28.92
2019-03-10T00:15:43.143Z,30.20
2019-03-10T00:16:48.125Z,25.65
2019-03-10T00:17:52.758Z,26.33
2019-03-10T00:18:58.300Z,24.57
2019-03-10T00:20:02.986Z,26.90
2019-03-10T00:21:08.247Z,30.62
2019-03-10T00:22:12.977Z,27.25
2019-03-10T00:23:17.699Z,27.60
2019-03-10T00:24:22.451Z,27.93
2019-03-10T00:25:27.160Z,22.30
2019-03-10T00:26:32.544Z,25.80
2019-03-10T00:27:37.312Z,30.48
2019-03-10T00:28:42.384Z,28.32
2019-03-10T00:29:47.075Z,22.77
2019-03-10T00:30:52.371Z,26.65
2019-03-10T00:31:57.655Z,23.70
2019-03-10T00:33:03.213Z,30.65
2019-03-10T00:34:08.103Z,28.00
2019-03-10T00:35:13.230Z,22.65
2019-03-10T00:36:18.247Z,28.10
2019-03-10T00:37:23.008Z,29.57
2019-03-10T00:38:29.552Z,20.08
2019-03-10T00:40:17.893Z,22.45
2019-03-10T00:41:54.770Z,25.55
2019-03-10T00:43:58.589Z,22.52
2019-03-10T00:45:43.090Z,25.20
2019-03-10T00:47:26.754Z,22.65
2019-03-10T00:49:20.743Z,25.55
2019-03-10T00:51:01.698Z,26.57
2019-03-10T00:52:13.456Z,24.20
2019-03-10T00:53:18.593Z,25.88
2019-03-10T00:54:23.611Z,31.50
2019-03-10T00:55:28.982Z,27.40
2019-03-10T00:56:34.377Z,21.07
2019-03-10T00:57:39.410Z,28.02
2019-03-10T00:58:44.445Z,28.98
2019-03-10T00:59:49.703Z,18.48
2019-03-10T01:00:54.699Z,29.85
2019-03-10T01:01:59.676Z,25.23
2019-03-10T01:03:05.211Z,21.12
2019-03-10T01:04:10.798Z,22.98
2019-03-10T01:05:16.086Z,24.72
2019-03-10T01:06:21.372Z,19.98
2019-03-10T01:07:26.363Z,21.45
2019-03-10T01:08:32.380Z,24.77
2019-03-10T01:09:37.690Z,20.90
2019-03-10T01:10:42.871Z,22.87
2019-03-10T01:11:48.212Z,27.10
2019-03-10T01:12:53.487Z,19.95
2019-03-10T01:13:58.757Z,23.65
2019-03-10T01:15:03.223Z,24.60
2019-03-10T01:16:08.559Z,20.35
2019-03-10T01:17:13.883Z,20.75
2019-03-10T01:18:19.991Z,23.12
2019-03-10T01:19:24.983Z,19.70
2019-03-10T01:20:30.510Z,24.85
2019-03-10T01:21:36.459Z,26.25
2019-03-10T01:22:41.380Z,22.95
2019-03-10T01:23:46.345Z,21.65
2019-03-10T01:24:51.333Z,24.57
2019-03-10T01:25:56.303Z,27.20
2019-03-10T01:27:01.375Z,20.20
2019-03-10T01:28:05.876Z,25.23
2019-03-10T01:29:10.614Z,20.70
2019-03-10T01:30:19.967Z,21.55
2019-03-10T01:31:33.495Z,19.50
2019-03-10T01:32:55.726Z,23.73
2019-03-10T01:34:34.610Z,29.05
2019-03-10T01:35:43.341Z,22.85
2019-03-10T01:36:48.313Z,22.13
2019-03-10T01:37:53.270Z,29.80
2019-03-10T01:38:58.003Z,24.77
2019-03-10T01:40:03.326Z,27.67
2019-03-10T01:41:08.066Z,18.20
2019-03-10T01:42:13.046Z,21.48
2019-03-10T01:43:18.318Z,27.40
2019-03-10T01:44:22.763Z,26.73
2019-03-10T01:45:28.085Z,24.77
2019-03-10T01:46:33.142Z,26.57
2019-03-10T01:47:38.876Z,23.50
2019-03-10T01:48:43.854Z,23.75
2019-03-10T01:49:49.396Z,23.10
2019-03-10T01:50:54.467Z,24.43
2019-03-10T01:51:59.225Z,27.30
2019-03-10T01:53:04.600Z,23.00
2019-03-10T01:54:09.636Z,22.67
2019-03-10T01:55:14.672Z,24.52
2019-03-10T01:56:19.677Z,26.73
2019-03-10T01:57:24.206Z,23.57
2019-03-10T01:58:29.430Z,24.02
2019-03-10T01:59:34.502Z,19.07
2019-03-10T02:00:39.581Z,28.42
2019-03-10T02:01:44.886Z,17.50
2019-03-10T02:02:50.243Z,26.37
2019-03-10T02:03:55.525Z,20.52
2019-03-10T02:05:00.819Z,21.05
2019-03-10T02:06:06.198Z,18.02
2019-03-10T02:07:11.158Z,26.52
2019-03-10T02:08:15.869Z,26.62
2019-03-10T02:09:21.516Z,21.57
2019-03-10T02:10:26.834Z,27.27
2019-03-10T02:11:32.533Z,25.62
2019-03-10T02:12:37.249Z,24.50
2019-03-10T02:13:41.694Z,19.00
2019-03-10T02:14:46.669Z,24.23
2019-03-10T02:15:51.889Z,24.92
2019-03-10T02:16:56.586Z,23.65
2019-03-10T02:18:01.590Z,31.02
2019-03-10T02:19:06.526Z,28.25
2019-03-10T02:20:13.552Z,26.55
2019-03-10T02:21:18.827Z,23.62
2019-03-10T02:22:24.548Z,23.02
2019-03-10T02:23:29.844Z,24.63
2019-03-10T02:24:35.384Z,24.63
2019-03-10T02:25:40.709Z,28.50
2019-03-10T02:26:45.793Z,24.10
2019-03-10T02:27:50.579Z,16.65
2019-03-10T02:28:55.867Z,25.68
2019-03-10T02:30:00.659Z,26.82
2019-03-10T02:31:05.335Z,26.93
2019-03-10T02:32:10.889Z,23.32
2019-03-10T02:33:16.061Z,27.65
2019-03-10T02:34:20.789Z,24.67
2019-03-10T02:35:25.555Z,26.90
2019-03-10T02:36:30.384Z,22.87
2019-03-10T02:37:35.690Z,22.60
2019-03-10T02:38:40.731Z,26.17
2019-03-10T02:39:45.550Z,26.62
2019-03-10T02:40:50.853Z,29.18
2019-03-10T02:41:55.886Z,22.98
2019-03-10T02:43:00.863Z,27.13
2019-03-10T02:44:05.596Z,26.05
2019-03-10T02:45:11.872Z,24.85
2019-03-10T02:46:16.843Z,23.35
2019-03-10T02:47:22.105Z,26.12
2019-03-10T02:48:26.876Z,24.32
2019-03-10T02:49:32.444Z,23.67
2019-03-10T02:50:37.401Z,19.73
2019-03-10T02:51:42.516Z,25.88
2019-03-10T02:52:47.752Z,20.20
2019-03-10T02:53:52.828Z,26.33
2019-03-10T02:54:57.857Z,25.55
2019-03-10T02:56:03.431Z,22.07
2019-03-10T02:57:08.253Z,21.93
2019-03-10T02:58:13.714Z,19.55
2019-03-10T02:59:19.090Z,25.08
2019-03-10T03:00:24.158Z,25.72
2019-03-10T03:01:28.897Z,24.12
2019-03-10T03:02:33.906Z,22.52
2019-03-10T03:03:39.257Z,21.42
2019-03-10T03:04:44.332Z,20.27
2019-03-10T03:05:49.578Z,24.77
2019-03-10T03:06:54.825Z,15.40
2019-03-10T03:08:00.365Z,21.10
2019-03-10T03:09:07.235Z,20.32
2019-03-10T03:10:12.547Z,18.75
2019-03-10T03:11:18.213Z,18.82
2019-03-10T03:12:23.474Z,24.47
2019-03-10T03:13:27.934Z,22.10
2019-03-10T03:14:32.454Z,21.75
2019-03-10T03:15:37.967Z,23.83
2019-03-10T03:16:43.282Z,23.40
2019-03-10T03:17:48.253Z,17.73
2019-03-10T03:18:53.209Z,26.42
2019-03-10T03:19:58.185Z,18.73
2019-03-10T03:21:03.566Z,20.50
2019-03-10T03:22:08.283Z,23.95
2019-03-10T03:23:13.367Z,27.65
2019-03-10T03:24:18.372Z,21.57
2019-03-10T03:25:23.403Z,25.10
2019-03-10T03:26:29.071Z,19.42
2019-03-10T03:27:34.357Z,27.52
2019-03-10T03:28:39.667Z,18.77
2019-03-10T03:29:44.987Z,25.32
2019-03-10T03:30:50.263Z,23.83
2019-03-10T03:31:55.234Z,21.12
2019-03-10T03:33:00.337Z,21.27
2019-03-10T03:34:06.095Z,25.77
2019-03-10T03:35:54.089Z,26.57
2019-03-10T03:36:59.393Z,21.65
2019-03-10T03:38:04.440Z,25.57
2019-03-10T03:39:29.216Z,20.30
2019-03-10T03:40:34.228Z,19.95
2019-03-10T03:41:39.020Z,19.35
2019-03-10T03:42:44.276Z,24.20
2019-03-10T03:43:49.640Z,18.27
2019-03-10T03:44:54.955Z,23.87
2019-03-10T03:46:00.063Z,23.83
2019-03-10T03:47:05.427Z,19.87
2019-03-10T03:48:10.477Z,21.50
2019-03-10T03:49:15.766Z,24.77
2019-03-10T03:50:20.449Z,16.87
2019-03-10T03:51:25.593Z,17.67
2019-03-10T03:52:30.830Z,17.23
2019-03-10T03:53:35.882Z,16.60
2019-03-10T03:54:41.166Z,17.75
2019-03-10T03:55:46.236Z,17.10
2019-03-10T03:56:51.313Z,15.28
2019-03-10T03:57:56.449Z,16.05
2019-03-10T03:59:01.189Z,13.85
2019-03-10T04:00:06.381Z,18.77
2019-03-10T04:01:35.997Z,16.93
2019-03-10T04:02:41.156Z,12.65
2019-03-10T04:03:45.967Z,17.20
2019-03-10T04:04:51.260Z,13.10
2019-03-10T04:05:55.948Z,16.95
2019-03-10T04:07:00.932Z,17.67
2019-03-10T04:08:05.932Z,14.15
2019-03-10T04:09:10.972Z,15.98
2019-03-10T04:10:15.940Z,14.70
2019-03-10T04:11:21.044Z,15.03
2019-03-10T04:12:25.485Z,16.00
2019-03-10T04:13:30.765Z,15.85
2019-03-10T04:14:36.174Z,13.68
2019-03-10T04:15:41.243Z,13.30
2019-03-10T04:16:46.226Z,14.63
2019-03-10T04:17:51.537Z,11.78
2019-03-10T04:18:56.578Z,15.18
2019-03-10T04:20:01.869Z,14.68
2019-03-10T04:21:06.582Z,12.68
2019-03-10T04:22:11.301Z,12.78
2019-03-10T04:23:16.388Z,14.13
2019-03-10T04:24:22.011Z,7.62
2019-03-10T04:25:26.694Z,10.40
2019-03-10T04:26:31.962Z,13.95
2019-03-10T04:27:37.086Z,17.37
2019-03-10T04:28:42.431Z,13.90
2019-03-10T04:29:47.755Z,9.53
2019-03-10T04:30:53.034Z,12.68
2019-03-10T04:31:58.544Z,15.10
2019-03-10T04:33:03.856Z,12.90
2019-03-10T04:34:08.918Z,15.50
2019-03-10T04:35:13.933Z,13.32
2019-03-10T04:36:18.980Z,13.78
2019-03-10T04:37:23.716Z,12.98
2019-03-10T04:38:28.742Z,13.18
2019-03-10T04:39:34.281Z,15.13
2019-03-10T04:40:39.047Z,12.73
2019-03-10T04:41:44.136Z,9.58
2019-03-10T04:42:49.114Z,12.35
2019-03-10T04:43:54.160Z,15.45
2019-03-10T04:44:58.927Z,12.20
2019-03-10T04:46:04.013Z,12.95
2019-03-10T04:47:08.816Z,11.25
2019-03-10T04:48:14.444Z,9.38
2019-03-10T04:49:19.701Z,9.38
2019-03-10T04:50:24.483Z,12.10
2019-03-10T04:51:29.799Z,9.58
2019-03-10T04:52:35.054Z,10.85
2019-03-10T04:53:40.284Z,11.83
2019-03-10T04:55:19.597Z,8.83
2019-03-10T04:56:49.625Z,13.83
2019-03-10T04:58:14.580Z,12.10
2019-03-10T04:59:19.644Z,16.73
2019-03-10T05:00:24.835Z,12.00
2019-03-10T05:01:30.121Z,11.10
2019-03-10T05:02:35.535Z,12.80
2019-03-10T05:03:40.824Z,13.35
2019-03-10T05:04:45.837Z,10.53
2019-03-10T05:05:51.125Z,13.45
2019-03-10T05:06:56.439Z,9.45
2019-03-10T05:08:01.516Z,10.43
2019-03-10T05:09:10.185Z,15.28
2019-03-10T05:10:15.444Z,16.15
2019-03-10T05:11:20.561Z,13.25
2019-03-10T05:12:25.601Z,9.20
2019-03-10T05:13:30.588Z,13.65
2019-03-10T05:14:35.461Z,15.43
2019-03-10T05:15:40.438Z,9.30
2019-03-10T05:16:45.551Z,12.18
2019-03-10T05:17:50.457Z,11.93
2019-03-10T05:18:55.986Z,14.43
2019-03-10T05:20:01.547Z,12.35
2019-03-10T05:21:08.582Z,14.65
2019-03-10T05:22:15.038Z,14.90
2019-03-10T05:23:35.118Z,9.90
2019-03-10T05:24:39.629Z,10.23
2019-03-10T05:25:44.350Z,14.55
2019-03-10T05:26:49.654Z,14.38
2019-03-10T05:27:54.896Z,8.85
2019-03-10T05:28:59.890Z,10.38
2019-03-10T05:30:04.913Z,12.05
2019-03-10T05:31:09.810Z,14.03
2019-03-10T05:32:15.326Z,13.40
2019-03-10T05:33:20.005Z,9.03
2019-03-10T05:34:24.979Z,11.40
2019-03-10T05:35:30.140Z,15.90
2019-03-10T05:36:35.284Z,14.33
2019-03-10T05:37:40.240Z,13.48
2019-03-10T05:38:45.897Z,14.23
2019-03-10T05:39:50.634Z,15.30
2019-03-10T05:40:56.225Z,14.63
2019-03-10T05:42:00.789Z,10.80
2019-03-10T05:43:05.590Z,12.55
2019-03-10T05:44:10.846Z,11.65
2019-03-10T05:45:15.841Z,10.63
2019-03-10T05:46:20.787Z,12.85
2019-03-10T05:47:25.752Z,17.45
2019-03-10T05:48:31.076Z,8.45
2019-03-10T05:49:36.554Z,11.08
2019-03-10T05:50:41.546Z,9.55
2019-03-10T05:51:46.303Z,11.15
2019-03-10T05:52:51.354Z,13.05
2019-03-10T05:53:56.578Z,13.85
2019-03-10T05:55:02.103Z,10.93
2019-03-10T05:56:07.273Z,13.93
2019-03-10T05:57:12.695Z,13.00
2019-03-10T05:58:18.241Z,10.40
2019-03-10T05:59:23.926Z,12.68
2019-03-10T06:00:29.046Z,8.75
2019-03-10T06:01:34.151Z,12.60
2019-03-10T06:02:39.817Z,10.23
2019-03-10T06:03:45.060Z,15.45
2019-03-10T06:04:50.792Z,9.53
2019-03-10T06:05:56.146Z,9.95
2019-03-10T06:07:01.745Z,13.55
2019-03-10T06:08:06.732Z,12.60
2019-03-10T06:09:11.422Z,11.20
2019-03-10T06:10:16.433Z,10.95
2019-03-10T06:11:21.836Z,13.13
2019-03-10T06:12:27.053Z,12.18
2019-03-10T06:13:31.516Z,9.85
2019-03-10T06:14:36.777Z,11.90
2019-03-10T06:15:41.839Z,9.63
2019-03-10T06:16:47.111Z,11.97
2019-03-10T06:17:52.545Z,11.57
2019-03-10T06:18:57.559Z,12.88
2019-03-10T06:20:02.841Z,8.88
2019-03-10T06:21:08.191Z,13.72
2019-03-10T06:22:12.916Z,15.03
2019-03-10T06:23:18.621Z,10.32
2019-03-10T06:24:23.338Z,14.00
2019-03-10T06:25:28.501Z,14.55
2019-03-10T06:26:33.580Z,11.57
2019-03-10T06:27:38.304Z,11.43
2019-03-10T06:28:43.296Z,12.90
2019-03-10T06:29:48.958Z,8.68
2019-03-10T06:30:56.333Z,14.20
2019-03-10T06:32:00.810Z,11.08
2019-03-10T06:33:05.830Z,12.88
2019-03-10T06:34:10.777Z,8.15
2019-03-10T06:35:15.888Z,10.58
2019-03-10T06:36:20.930Z,8.88
2019-03-10T06:37:25.977Z,10.80
2019-03-10T06:38:30.726Z,10.85
2019-03-10T06:39:35.976Z,8.98
2019-03-10T06:40:41.015Z,7.58
2019-03-10T06:41:45.578Z,7.70
2019-03-10T06:42:50.974Z,10.45
2019-03-10T06:43:56.172Z,10.15
2019-03-10T06:45:01.451Z,9.75
2019-03-10T06:46:06.126Z,10.58
2019-03-10T06:47:11.549Z,10.40
2019-03-10T06:48:16.583Z,8.95
2019-03-10T06:49:21.877Z,8.48
2019-03-10T06:50:26.559Z,8.95
2019-03-10T06:51:31.910Z,10.45
2019-03-10T06:52:37.008Z,6.42
2019-03-10T06:53:42.315Z,10.80
2019-03-10T06:54:48.093Z,5.95
2019-03-10T06:55:53.371Z,10.68
2019-03-10T06:56:58.623Z,6.25
2019-03-10T06:58:03.884Z,8.38
2019-03-10T06:59:08.900Z,9.93
2019-03-10T07:00:13.963Z,4.92
2019-03-10T07:01:19.279Z,8.33
2019-03-10T07:02:24.552Z,7.28
2019-03-10T07:03:29.655Z,13.22
2019-03-10T07:04:35.073Z,9.95
2019-03-10T07:05:39.878Z,8.40
2019-03-10T07:06:44.739Z,10.55
2019-03-10T07:07:49.185Z,9.25
2019-03-10T07:08:53.972Z,6.28
2019-03-10T07:09:59.198Z,8.45
2019-03-10T07:11:04.226Z,7.45
2019-03-10T07:12:08.945Z,11.85
2019-03-10T07:13:13.674Z,8.08
2019-03-10T07:14:18.660Z,9.33
2019-03-10T07:15:23.456Z,8.18
2019-03-10T07:16:28.975Z,7.03
2019-03-10T07:17:34.313Z,6.03
2019-03-10T07:18:39.670Z,10.75
2019-03-10T07:19:44.659Z,8.60
2019-03-10T07:20:49.786Z,11.60
2019-03-10T07:21:55.050Z,6.22
2019-03-10T07:22:59.739Z,11.10
2019-03-10T07:24:05.047Z,9.25
2019-03-10T07:25:09.911Z,9.15
2019-03-10T07:26:15.125Z,7.35
2019-03-10T07:27:19.559Z,11.78
2019-03-10T07:28:31.769Z,7.62
2019-03-10T07:29:49.940Z,10.53
2019-03-10T07:31:14.210Z,7.35
2019-03-10T07:32:24.104Z,8.35
2019-03-10T07:33:47.941Z,9.90
2019-03-10T07:35:21.261Z,8.55
2019-03-10T07:36:50.724Z,11.48
2019-03-10T07:38:32.799Z,5.55
2019-03-10T07:39:59.324Z,9.30
2019-03-10T07:41:22.710Z,7.90
2019-03-10T07:42:35.536Z,9.75
2019-03-10T07:44:05.939Z,8.55
2019-03-10T07:45:41.541Z,7.67
2019-03-10T07:46:52.767Z,7.17
2019-03-10T07:48:35.157Z,8.70
2019-03-10T07:49:46.550Z,10.05
2019-03-10T07:51:19.589Z,10.20
2019-03-10T07:52:42.244Z,8.73
2019-03-10T07:54:09.508Z,9.10
2019-03-10T07:55:36.149Z,8.30
2019-03-10T07:56:59.010Z,9.28
2019-03-10T07:58:32.010Z,8.83
2019-03-10T07:59:55.000Z,7.37
2019-03-10T08:01:17.881Z,7.83
2019-03-10T08:03:00.204Z,6.35
2019-03-10T08:04:23.795Z,8.35
2019-03-10T08:05:40.423Z,7.22
2019-03-10T08:07:19.746Z,6.55
2019-03-10T08:08:30.083Z,7.20
2019-03-10T08:09:52.425Z,10.28
2019-03-10T08:11:19.119Z,8.75
2019-03-10T08:12:41.617Z,8.60
2019-03-10T08:14:05.203Z,9.33
2019-03-10T08:15:31.681Z,7.53
2019-03-10T08:17:01.429Z,6.87
2019-03-10T08:18:30.952Z,7.50
2019-03-10T08:19:55.127Z,7.00
2019-03-10T08:21:09.725Z,8.10
2019-03-10T08:22:32.849Z,9.45
2019-03-10T08:23:50.654Z,8.10
2019-03-10T08:25:24.179Z,9.05
2019-03-10T08:26:51.073Z,6.47
2019-03-10T08:28:08.764Z,8.10
2019-03-10T08:29:38.979Z,6.92
2019-03-10T08:31:02.722Z,7.92
2019-03-10T08:32:29.506Z,8.25
2019-03-10T08:33:59.633Z,7.95
2019-03-10T08:35:19.102Z,10.18
2019-03-10T08:36:32.510Z,6.20
2019-03-10T08:37:43.820Z,6.92
2019-03-10T08:39:06.692Z,8.55
2019-03-10T08:40:20.523Z,8.58
2019-03-10T08:41:45.897Z,8.53
2019-03-10T08:43:16.295Z,6.87
2019-03-10T08:44:35.400Z,9.53
2019-03-10T08:46:02.042Z,8.03
2019-03-10T08:47:32.084Z,13.03
2019-03-10T08:48:49.775Z,6.97
2019-03-10T08:50:05.559Z,8.20
2019-03-10T08:51:32.381Z,9.30
2019-03-10T08:52:44.110Z,6.90
2019-03-10T08:53:53.245Z,6.50
2019-03-10T08:55:29.388Z,8.78
2019-03-10T08:57:05.708Z,6.87
2019-03-10T08:58:35.220Z,6.03
2019-03-10T08:59:55.471Z,7.30
2019-03-10T09:01:13.764Z,4.10
2019-03-10T09:02:46.614Z,4.78
2019-03-10T09:04:13.817Z,5.60
2019-03-10T09:05:36.306Z,3.77
2019-03-10T09:06:58.836Z,5.60
2019-03-10T09:08:21.530Z,5.55
2019-03-10T09:09:45.856Z,4.53
2019-03-10T09:11:13.060Z,4.50
2019-03-10T09:12:23.444Z,2.37
2019-03-10T09:13:35.163Z,5.62
2019-03-10T09:15:02.081Z,4.47
2019-03-10T09:16:20.342Z,3.45
2019-03-10T09:17:32.120Z,3.10
2019-03-10T09:18:54.878Z,2.90
2019-03-10T09:20:16.258Z,2.75
2019-03-10T09:21:28.951Z,5.25
2019-03-10T09:22:50.884Z,1.85
2019-03-10T09:24:05.971Z,4.17
2019-03-10T09:25:33.149Z,2.27
2019-03-10T09:26:45.046Z,2.40
2019-03-10T09:28:11.664Z,4.70
2019-03-10T09:29:47.347Z,5.85
2019-03-10T09:31:01.696Z,3.40
2019-03-10T09:32:34.170Z,2.67
2019-03-10T09:34:01.619Z,2.80
2019-03-10T09:35:26.078Z,4.92
2019-03-10T09:36:59.054Z,3.65
2019-03-10T09:38:10.012Z,3.12
2019-03-10T09:39:22.344Z,7.03
2019-03-10T09:40:45.664Z,4.70
2019-03-10T09:42:08.819Z,4.17
2019-03-10T09:43:32.451Z,3.20
2019-03-10T09:44:47.405Z,2.52
2019-03-10T09:46:26.765Z,2.65
2019-03-10T09:47:58.415Z,2.87
2019-03-10T09:49:22.310Z,3.27
2019-03-10T09:50:52.039Z,3.95
2019-03-10T09:52:18.807Z,7.47
2019-03-10T09:53:49.333Z,3.12
2019-03-10T09:55:09.421Z,3.12
2019-03-10T09:56:22.434Z,3.92
2019-03-10T09:57:55.005Z,3.75
2019-03-10T09:59:14.678Z,5.28
2019-03-10T10:00:38.538Z,3.45
2019-03-10T10:02:07.968Z,4.10
2019-03-10T10:03:34.557Z,4.65
2019-03-10T10:05:01.026Z,5.87
2019-03-10T10:06:27.500Z,7.47
2019-03-10T10:07:50.714Z,6.83
2019-03-10T10:09:13.196Z,5.53
2019-03-10T10:10:28.732Z,7.65
2019-03-10T10:11:45.917Z,9.50
2019-03-10T10:13:16.161Z,5.97
2019-03-10T10:14:26.970Z,5.53
2019-03-10T10:15:54.254Z,4.47
2019-03-10T10:17:18.361Z,5.75
2019-03-10T10:18:40.886Z,6.25
2019-03-10T10:20:11.141Z,5.87
2019-03-10T10:21:37.714Z,7.42
2019-03-10T10:22:49.012Z,5.22
2019-03-10T10:24:07.043Z,6.28
2019-03-10T10:25:22.752Z,5.22
2019-03-10T10:26:56.317Z,3.30
2019-03-10T10:28:23.212Z,7.30
2019-03-10T10:29:56.140Z,6.67
2019-03-10T10:31:29.310Z,7.15
2019-03-10T10:32:41.538Z,6.45
2019-03-10T10:34:08.349Z,9.08
2019-03-10T10:35:32.117Z,8.20
2019-03-10T10:36:58.722Z,9.63
2019-03-10T10:38:18.715Z,12.03
2019-03-10T10:39:41.977Z,12.53
2019-03-10T10:41:06.136Z,8.53
2019-03-10T10:42:28.673Z,7.70
2019-03-10T10:43:52.282Z,11.12
2019-03-10T10:45:10.997Z,10.68
2019-03-10T10:46:33.813Z,10.95
2019-03-10T10:47:52.481Z,8.63
2019-03-10T10:49:19.091Z,8.38
2019-03-10T10:50:30.964Z,9.15
2019-03-10T10:51:54.391Z,11.30
2019-03-10T10:53:22.103Z,13.55
2019-03-10T10:54:44.786Z,8.38
2019-03-10T10:56:14.196Z,10.88
2019-03-10T10:57:27.223Z,8.35
2019-03-10T10:58:45.465Z,10.53
2019-03-10T11:00:03.428Z,8.50
2019-03-10T11:01:25.914Z,8.80
2019-03-10T11:02:48.610Z,10.53
2019-03-10T11:04:18.098Z,7.90
2019-03-10T11:05:40.165Z,9.78
2019-03-10T11:06:50.366Z,6.42
2019-03-10T11:08:10.740Z,9.13
2019-03-10T11:09:31.337Z,9.63
2019-03-10T11:10:44.081Z,10.88
2019-03-10T11:12:14.042Z,9.88
2019-03-10T11:13:31.570Z,6.55
2019-03-10T11:14:55.586Z,8.10
2019-03-10T11:16:09.928Z,10.15
2019-03-10T11:17:27.308Z,6.45
2019-03-10T11:18:51.205Z,7.65
2019-03-10T11:20:13.903Z,6.30
2019-03-10T11:21:37.556Z,10.08
2019-03-10T11:23:16.361Z,8.25
2019-03-10T11:24:39.927Z,6.28
2019-03-10T11:25:52.062Z,10.38
2019-03-10T11:27:12.178Z,8.13
2019-03-10T11:28:39.240Z,9.75
2019-03-10T11:30:02.009Z,7.95
2019-03-10T11:31:17.231Z,8.55
2019-03-10T11:32:49.885Z,7.83
2019-03-10T11:34:05.604Z,9.18
2019-03-10T11:35:33.239Z,10.88
2019-03-10T11:37:15.287Z,10.38
2019-03-10T11:38:39.146Z,12.25
2019-03-10T11:39:50.514Z,9.20
2019-03-10T11:41:12.537Z,13.72
2019-03-10T11:42:35.250Z,10.18
2019-03-10T11:43:45.924Z,13.40
2019-03-10T11:45:06.719Z,13.65
2019-03-10T11:46:50.068Z,9.45
2019-03-10T11:48:04.281Z,10.48
2019-03-10T11:49:30.906Z,12.10
2019-03-10T11:50:55.064Z,11.38
2019-03-10T11:52:08.198Z,17.02
2019-03-10T11:53:25.742Z,12.45
2019-03-10T11:54:44.072Z,12.15
2019-03-10T11:56:14.105Z,12.58
2019-03-10T11:57:24.083Z,10.65
2019-03-10T11:58:51.277Z,10.68
2019-03-10T12:00:03.122Z,12.53
2019-03-10T12:01:38.545Z,9.15
2019-03-10T12:03:02.118Z,13.98
2019-03-10T12:04:25.746Z,8.60
2019-03-10T12:05:49.367Z,11.60
2019-03-10T12:07:11.934Z,11.83
2019-03-10T12:08:34.836Z,9.28
2019-03-10T12:09:40.130Z,11.18
2019-03-10T12:10:45.258Z,11.18
2019-03-10T12:11:50.685Z,12.50
2019-03-10T12:12:55.133Z,10.45
2019-03-10T12:14:00.276Z,12.30
2019-03-10T12:15:05.449Z,10.10
2019-03-10T12:16:10.430Z,11.85
2019-03-10T12:17:15.741Z,10.10
2019-03-10T12:18:21.091Z,13.38
2019-03-10T12:19:26.259Z,16.02
2019-03-10T12:20:31.018Z,12.90
2019-03-10T12:21:36.161Z,13.30
2019-03-10T12:22:41.450Z,12.50
2019-03-10T12:23:47.011Z,12.18
2019-03-10T12:24:52.411Z,12.13
2019-03-10T12:25:57.184Z,14.55
2019-03-10T12:27:02.413Z,13.45
2019-03-10T12:28:07.364Z,15.63
2019-03-10T12:29:12.357Z,15.15
2019-03-10T12:30:17.254Z,13.70
2019-03-10T12:31:22.607Z,10.93
2019-03-10T12:32:28.223Z,13.60
2019-03-10T12:33:35.949Z,13.38
2019-03-10T12:34:40.952Z,14.50
2019-03-10T12:35:45.992Z,11.65
2019-03-10T12:36:50.601Z,11.50
2019-03-10T12:37:55.662Z,9.70
2019-03-10T12:39:00.645Z,17.75
2019-03-10T12:40:05.592Z,17.17
2019-03-10T12:41:10.636Z,12.65
2019-03-10T12:42:15.629Z,16.95
2019-03-10T12:43:20.944Z,14.68
2019-03-10T12:44:26.215Z,10.35
2019-03-10T12:45:31.221Z,15.03
2019-03-10T12:46:36.063Z,12.95
2019-03-10T12:47:41.454Z,11.40
2019-03-10T12:48:46.708Z,12.10
2019-03-10T12:49:51.446Z,8.73
2019-03-10T12:50:55.936Z,9.58
2019-03-10T12:52:01.505Z,12.07
2019-03-10T12:53:06.967Z,15.28
2019-03-10T12:54:12.222Z,9.03
2019-03-10T12:55:17.229Z,7.17
2019-03-10T12:56:21.939Z,7.67
2019-03-10T12:57:27.437Z,8.90
2019-03-10T12:58:32.611Z,10.38
2019-03-10T12:59:37.986Z,11.85
2019-03-10T13:00:43.010Z,7.05
2019-03-10T13:01:47.813Z,11.45
2019-03-10T13:02:52.851Z,12.33
2019-03-10T13:03:59.148Z,13.08
2019-03-10T13:05:04.117Z,11.80
2019-03-10T13:06:09.207Z,10.10
2019-03-10T13:07:14.257Z,15.13
2019-03-10T13:08:18.959Z,12.98
2019-03-10T13:09:24.232Z,10.75
2019-03-10T13:10:29.212Z,14.83
2019-03-10T13:11:34.391Z,13.58
2019-03-10T13:12:39.385Z,18.23
2019-03-10T13:13:44.932Z,11.83
2019-03-10T13:14:58.927Z,12.43
2019-03-10T13:15:56.088Z,14.18
2019-03-10T13:17:01.580Z,12.37
2019-03-10T13:18:06.342Z,14.15
2019-03-10T13:19:11.714Z,14.65
2019-03-10T13:20:27.537Z,12.75
2019-03-10T13:21:26.094Z,10.28
2019-03-10T13:22:31.621Z,13.03
2019-03-10T13:23:36.904Z,11.00
2019-03-10T13:24:41.896Z,8.58
2019-03-10T13:25:46.411Z,14.23
2019-03-10T13:26:51.427Z,14.50
2019-03-10T13:27:56.913Z,10.63
2019-03-10T13:29:01.945Z,12.20
2019-03-10T13:30:07.039Z,10.90
2019-03-10T13:31:12.009Z,14.65
2019-03-10T13:32:17.203Z,9.60
2019-03-10T13:33:21.681Z,10.13
2019-03-10T13:34:27.117Z,12.00
2019-03-10T13:35:32.204Z,11.35
2019-03-10T13:36:37.455Z,10.25
2019-03-10T13:37:42.422Z,13.95
2019-03-10T13:38:47.142Z,12.80
2019-03-10T13:39:51.879Z,9.05
2019-03-10T13:40:56.956Z,13.65
2019-03-10T13:42:01.637Z,11.20
2019-03-10T13:43:06.676Z,10.55
2019-03-10T13:44:11.957Z,12.60
2019-03-10T13:45:16.717Z,11.68
2019-03-10T13:46:21.841Z,11.12
2019-03-10T13:47:26.654Z,9.30
2019-03-10T13:48:31.410Z,13.62
2019-03-10T13:49:36.447Z,9.53
2019-03-10T13:50:41.180Z,10.00
2019-03-10T13:51:46.736Z,4.85
2019-03-10T13:52:51.236Z,7.50
2019-03-10T13:53:56.267Z,5.87
2019-03-10T13:55:01.229Z,6.47
2019-03-10T13:56:05.955Z,9.63
2019-03-10T13:57:11.229Z,6.60
2019-03-10T13:58:16.488Z,4.28
2019-03-10T13:59:21.519Z,6.08
2019-03-10T14:00:26.366Z,4.17
2019-03-10T14:01:31.524Z,3.02
2019-03-10T14:02:36.587Z,3.58
2019-03-10T14:03:41.766Z,3.37
2019-03-10T14:04:47.078Z,1.75
2019-03-10T14:05:51.822Z,3.27
2019-03-10T14:06:57.259Z,4.22
2019-03-10T14:08:02.252Z,2.85
2019-03-10T14:09:08.350Z,3.33
2019-03-10T14:10:13.200Z,3.67
2019-03-10T14:11:17.729Z,1.60
2019-03-10T14:12:22.720Z,3.35
2019-03-10T14:13:27.784Z,5.62
2019-03-10T14:14:33.084Z,5.67
2019-03-10T14:15:38.544Z,6.35
2019-03-10T14:16:43.859Z,2.50
2019-03-10T14:17:49.633Z,5.33
2019-03-10T14:18:55.068Z,2.87
2019-03-10T14:20:00.449Z,2.25
2019-03-10T14:21:05.659Z,17.35
2019-03-10T14:22:10.663Z,7.58
2019-03-10T14:23:15.423Z,4.30
2019-03-10T14:24:20.109Z,4.05
2019-03-10T14:25:25.234Z,5.42
2019-03-10T14:26:30.912Z,4.00
2019-03-10T14:27:35.984Z,5.58
2019-03-10T14:28:40.709Z,1.95
2019-03-10T14:29:46.384Z,5.78
2019-03-10T14:30:51.585Z,6.25
2019-03-10T14:31:56.595Z,5.00
2019-03-10T14:33:01.579Z,5.03
2019-03-10T14:34:06.592Z,3.00
2019-03-10T14:35:11.396Z,2.15
2019-03-10T14:36:16.786Z,6.90
2019-03-10T14:37:22.103Z,6.20
2019-03-10T14:38:28.076Z,5.78
2019-03-10T14:39:33.136Z,4.22
2019-03-10T14:40:38.144Z,4.60
2019-03-10T14:41:42.939Z,6.92
2019-03-10T14:42:47.643Z,3.42
2019-03-10T14:43:52.345Z,4.72
2019-03-10T14:44:57.608Z,6.53
2019-03-10T14:46:02.045Z,6.83
2019-03-10T14:47:07.418Z,7.10
2019-03-10T14:48:12.414Z,5.35
2019-03-10T14:49:23.317Z,4.58
2019-03-10T14:50:24.413Z,6.78
2019-03-10T14:51:29.633Z,7.47
2019-03-10T14:52:34.708Z,7.70
2019-03-10T14:53:40.124Z,4.75
2019-03-10T14:54:44.631Z,5.83
2019-03-10T14:55:50.203Z,4.12
2019-03-10T14:56:54.885Z,6.40
2019-03-10T14:57:59.860Z,6.75
2019-03-10T14:59:04.646Z,5.80
2019-03-10T15:00:13.005Z,3.80
2019-03-10T15:01:18.010Z,5.33
2019-03-10T15:02:22.739Z,6.17
2019-03-10T15:03:28.410Z,3.67
2019-03-10T15:04:33.256Z,3.65
2019-03-10T15:05:38.531Z,3.87
2019-03-10T15:06:43.570Z,5.08
2019-03-10T15:07:48.857Z,8.85
2019-03-10T15:08:54.408Z,5.03
2019-03-10T15:09:59.649Z,7.50
2019-03-10T15:11:04.602Z,7.65
2019-03-10T15:12:09.955Z,5.17
2019-03-10T15:13:15.228Z,3.45
2019-03-10T15:14:19.935Z,2.95
2019-03-10T15:15:25.200Z,8.20
2019-03-10T15:16:30.552Z,4.08
2019-03-10T15:17:35.552Z,5.65
2019-03-10T15:18:40.859Z,6.97
2019-03-10T15:19:45.584Z,7.70